INFORMACIÓN METAR y TAF
METAR FOR LEAM
ADDS - METARS form results

(2249 UTC 06 July 2020)
Data provider http://aviationweather.gov/metar/data/
 
METAR text: LEAM 062230Z AUTO 00000KT CAVOK 24/21 Q1015
Conditions at: LEAM (ALMERIA AIRPORT , ES) observed 2230 UTC 06 July 2020
Temperature: 24.0°C (75°F)
Dewpoint: 21.0°C (70°F) [RH = 83%]
Pressure (altimeter): 29.97 inches Hg (1015.0 mb)
Winds: calm
Visibility: 6 or more miles (10+ km)
Ceiling: ceiling and visibility are OK
Clouds: unknown
Weather: no significant weather observed at this time

METAR text: LEAM 062200Z AUTO 00000KT CAVOK 24/21 Q1015
Conditions at: LEAM (ALMERIA AIRPORT , ES) observed 2200 UTC 06 July 2020
Temperature: 24.0°C (75°F)
Dewpoint: 21.0°C (70°F) [RH = 83%]
Pressure (altimeter): 29.97 inches Hg (1015.0 mb)
Winds: calm
Visibility: 6 or more miles (10+ km)
Ceiling: ceiling and visibility are OK
Clouds: unknown
Weather: no significant weather observed at this time

Forecast for: LEAM (ALMERIA AIRPORT , ES)
Text: TAF LEAM 062000Z 0621/0721 20005KT 9999 FEW020 TX27/0711Z TN21/0705Z
Forecast period: 2100 UTC 06 July 2020 to 2100 UTC 07 July 2020
Forecast type: FROM: standard forecast or significant change
Winds: from the SSW (200 degrees) at 6 MPH (5 knots; 2.6 m/s)
Visibility: 6 or more miles 10+ km)
Ceiling: at least 12,000 feet AGL
Clouds: few clouds at 2000 feet AGL
Weather: no significant weather forecast for this period

 MAPA DE AEROPUERTO

 INFORMACIÓN DE PISTA
Pista 08 Longitud 10499 ft Ancho 148 ft
Elevación 26 ft Umbral desplazado 492 ft Rumbo de pista 73
Pista 26 Longitud 10499 ft Ancho 148 ft
Elevación 70 ft Umbral desplazado 0 ft Rumbo de pista 253

 FRECUANCIAS DEL AEROPUERTO
Tipo APP Nombre APP Frecuencia 118.35 MHZ
Tipo GND Nombre GND Frecuencia 121.7 MHZ
Tipo TWR Nombre TWR Frecuencia 118.35 MHZ

 RADIO AYUDAS DEL AEROPUERTO
Tipo NDB Nombre Almeria Frecuencia 284 KHZ
Tipo NDB Nombre Almeria Frecuencia 310 KHZ
Tipo VOR-DME Nombre Almeria Frecuencia 114100 KHZ



Powered by Virtual Airlines Manager [v2.6.2]